sensor_id;sensor_type;location;lat;lon;timestamp;temperature;humidity
14995;DHT22;7593;49.006;8.372;2023-05-10T00:00:37;12.70;99.90
14995;DHT22;7593;49.006;8.372;2023-05-10T00:03:04;12.70;99.90
14995;DHT22;7593;49.006;8.372;2023-05-10T00:05:31;12.70;99.90
14995;DHT22;7593;49.006;8.372;2023-05-10T00:07:58;12.70;99.90
14995;DHT22;7593;49.006;8.372;2023-05-10T00:10:25;12.70;99.90
14995;DHT22;7593;49.006;8.372;2023-05-10T00:12:51;12.70;99.90
14995;DHT22;7593;49.006;8.372;2023-05-10T00:15:20;12.70;99.90
14995;DHT22;7593;49.006;8.372;2023-05-10T00:17:46;12.70;99.90
14995;DHT22;7593;49.006;8.372;2023-05-10T00:20:13;12.70;99.90
14995;DHT22;7593;49.006;8.372;2023-05-10T00:22:40;12.70;99.90
14995;DHT22;7593;49.006;8.372;2023-05-10T00:25:08;12.70;99.90
14995;DHT22;7593;49.006;8.372;2023-05-10T00:27:35;12.70;99.90
14995;DHT22;7593;49.006;8.372;2023-05-10T00:30:02;12.80;99.90
14995;DHT22;7593;49.006;8.372;2023-05-10T00:32:30;12.70;99.90
14995;DHT22;7593;49.006;8.372;2023-05-10T00:34:57;12.70;99.90
14995;DHT22;7593;49.006;8.372;2023-05-10T00:37:24;12.70;99.90
14995;DHT22;7593;49.006;8.372;2023-05-10T00:39:50;12.70;99.90
14995;DHT22;7593;49.006;8.372;2023-05-10T00:42:17;12.70;99.90
14995;DHT22;7593;49.006;8.372;2023-05-10T00:44:44;12.70;99.90
14995;DHT22;7593;49.006;8.372;2023-05-10T00:47:12;12.70;99.90
14995;DHT22;7593;49.006;8.372;2023-05-10T00:49:40;12.70;99.90
14995;DHT22;7593;49.006;8.372;2023-05-10T00:52:08;12.70;99.90
14995;DHT22;7593;49.006;8.372;2023-05-10T00:54:35;12.70;99.90
14995;DHT22;7593;49.006;8.372;2023-05-10T00:57:02;12.70;99.90
14995;DHT22;7593;49.006;8.372;2023-05-10T00:59:29;12.70;99.90
14995;DHT22;7593;49.006;8.372;2023-05-10T01:01:56;12.70;99.90
14995;DHT22;7593;49.006;8.372;2023-05-10T01:04:43;12.70;99.90
14995;DHT22;7593;49.006;8.372;2023-05-10T01:07:09;12.70;99.90
14995;DHT22;7593;49.006;8.372;2023-05-10T01:09:37;12.70;99.90
14995;DHT22;7593;49.006;8.372;2023-05-10T01:12:05;12.70;99.90
14995;DHT22;7593;49.006;8.372;2023-05-10T01:14:33;12.70;99.90
14995;DHT22;7593;49.006;8.372;2023-05-10T01:17:01;12.70;99.90
14995;DHT22;7593;49.006;8.372;2023-05-10T01:19:29;12.70;99.90
14995;DHT22;7593;49.006;8.372;2023-05-10T01:22:04;12.70;99.90
14995;DHT22;7593;49.006;8.372;2023-05-10T01:27:58;12.80;99.90
14995;DHT22;7593;49.006;8.372;2023-05-10T01:30:58;12.80;99.90
14995;DHT22;7593;49.006;8.372;2023-05-10T01:33:35;12.80;99.90
14995;DHT22;7593;49.006;8.372;2023-05-10T01:36:05;12.70;99.90
14995;DHT22;7593;49.006;8.372;2023-05-10T01:38:41;12.70;99.90
14995;DHT22;7593;49.006;8.372;2023-05-10T01:41:13;12.70;99.90
14995;DHT22;7593;49.006;8.372;2023-05-10T01:43:46;12.70;99.90
14995;DHT22;7593;49.006;8.372;2023-05-10T01:46:17;12.70;99.90
14995;DHT22;7593;49.006;8.372;2023-05-10T01:48:51;12.70;99.90
14995;DHT22;7593;49.006;8.372;2023-05-10T01:51:23;12.70;99.90
14995;DHT22;7593;49.006;8.372;2023-05-10T01:53:54;12.70;99.90
14995;DHT22;7593;49.006;8.372;2023-05-10T01:56:24;12.70;99.90
14995;DHT22;7593;49.006;8.372;2023-05-10T01:58:53;12.80;99.90
14995;DHT22;7593;49.006;8.372;2023-05-10T02:01:21;12.80;99.90
14995;DHT22;7593;49.006;8.372;2023-05-10T02:03:50;12.80;99.90
14995;DHT22;7593;49.006;8.372;2023-05-10T02:06:18;12.80;99.90
14995;DHT22;7593;49.006;8.372;2023-05-10T02:08:48;12.80;99.90
14995;DHT22;7593;49.006;8.372;2023-05-10T02:11:17;12.80;99.90
14995;DHT22;7593;49.006;8.372;2023-05-10T02:13:48;12.80;99.90
14995;DHT22;7593;49.006;8.372;2023-05-10T02:16:16;12.90;99.90
14995;DHT22;7593;49.006;8.372;2023-05-10T02:18:45;12.90;99.90
14995;DHT22;7593;49.006;8.372;2023-05-10T02:21:14;12.90;99.90
14995;DHT22;7593;49.006;8.372;2023-05-10T02:23:43;12.90;99.90
14995;DHT22;7593;49.006;8.372;2023-05-10T02:26:10;12.80;99.90
14995;DHT22;7593;49.006;8.372;2023-05-10T02:28:40;12.80;99.90
14995;DHT22;7593;49.006;8.372;2023-05-10T02:31:08;12.80;99.90
14995;DHT22;7593;49.006;8.372;2023-05-10T02:33:37;12.80;99.90
14995;DHT22;7593;49.006;8.372;2023-05-10T02:36:07;12.80;99.90
14995;DHT22;7593;49.006;8.372;2023-05-10T02:38:37;12.80;99.90
14995;DHT22;7593;49.006;8.372;2023-05-10T02:41:05;12.80;99.90
14995;DHT22;7593;49.006;8.372;2023-05-10T02:43:33;12.80;99.90
14995;DHT22;7593;49.006;8.372;2023-05-10T02:46:01;12.80;99.90
14995;DHT22;7593;49.006;8.372;2023-05-10T02:48:28;12.80;99.90
14995;DHT22;7593;49.006;8.372;2023-05-10T02:51:00;12.80;99.90
14995;DHT22;7593;49.006;8.372;2023-05-10T02:53:31;12.80;99.90
14995;DHT22;7593;49.006;8.372;2023-05-10T02:56:04;12.70;99.90
14995;DHT22;7593;49.006;8.372;2023-05-10T02:58:32;12.80;99.90
14995;DHT22;7593;49.006;8.372;2023-05-10T03:01:00;12.70;99.90
14995;DHT22;7593;49.006;8.372;2023-05-10T03:03:26;12.70;99.90
14995;DHT22;7593;49.006;8.372;2023-05-10T03:05:53;12.70;99.90
14995;DHT22;7593;49.006;8.372;2023-05-10T03:08:21;12.70;99.90
14995;DHT22;7593;49.006;8.372;2023-05-10T03:10:55;12.70;99.90
14995;DHT22;7593;49.006;8.372;2023-05-10T03:13:35;12.60;99.90
14995;DHT22;7593;49.006;8.372;2023-05-10T03:16:08;12.60;99.90
14995;DHT22;7593;49.006;8.372;2023-05-10T03:18:42;12.60;99.90
14995;DHT22;7593;49.006;8.372;2023-05-10T03:21:11;12.50;99.90
14995;DHT22;7593;49.006;8.372;2023-05-10T03:23:43;12.50;99.90
14995;DHT22;7593;49.006;8.372;2023-05-10T03:26:10;12.40;99.90
14995;DHT22;7593;49.006;8.372;2023-05-10T03:28:39;12.50;99.90
14995;DHT22;7593;49.006;8.372;2023-05-10T03:31:07;12.40;99.90
14995;DHT22;7593;49.006;8.372;2023-05-10T03:33:34;12.40;99.90
14995;DHT22;7593;49.006;8.372;2023-05-10T03:36:01;12.40;99.90
14995;DHT22;7593;49.006;8.372;2023-05-10T03:38:27;12.40;99.90
14995;DHT22;7593;49.006;8.372;2023-05-10T03:40:54;12.40;99.90
14995;DHT22;7593;49.006;8.372;2023-05-10T03:43:21;12.40;99.90
14995;DHT22;7593;49.006;8.372;2023-05-10T03:45:50;12.40;99.90
14995;DHT22;7593;49.006;8.372;2023-05-10T03:48:17;12.40;99.90
14995;DHT22;7593;49.006;8.372;2023-05-10T03:50:44;12.40;99.90
14995;DHT22;7593;49.006;8.372;2023-05-10T03:53:11;12.40;99.90
14995;DHT22;7593;49.006;8.372;2023-05-10T03:55:38;12.40;99.90
14995;DHT22;7593;49.006;8.372;2023-05-10T03:58:05;12.40;99.90
14995;DHT22;7593;49.006;8.372;2023-05-10T04:00:32;12.50;99.90
14995;DHT22;7593;49.006;8.372;2023-05-10T04:03:02;12.40;99.90
14995;DHT22;7593;49.006;8.372;2023-05-10T04:05:29;12.40;99.90
14995;DHT22;7593;49.006;8.372;2023-05-10T04:07:55;12.50;99.90
14995;DHT22;7593;49.006;8.372;2023-05-10T04:10:23;12.40;99.90
14995;DHT22;7593;49.006;8.372;2023-05-10T04:12:49;12.50;99.90
14995;DHT22;7593;49.006;8.372;2023-05-10T04:15:16;12.50;99.90
14995;DHT22;7593;49.006;8.372;2023-05-10T04:17:43;12.50;99.90
14995;DHT22;7593;49.006;8.372;2023-05-10T04:20:12;12.50;99.90
14995;DHT22;7593;49.006;8.372;2023-05-10T04:22:39;12.50;99.90
14995;DHT22;7593;49.006;8.372;2023-05-10T04:25:07;12.50;99.90
14995;DHT22;7593;49.006;8.372;2023-05-10T04:27:34;12.50;99.90
14995;DHT22;7593;49.006;8.372;2023-05-10T04:30:01;12.50;99.90
14995;DHT22;7593;49.006;8.372;2023-05-10T04:32:28;12.60;99.90
14995;DHT22;7593;49.006;8.372;2023-05-10T04:34:55;12.60;99.90
14995;DHT22;7593;49.006;8.372;2023-05-10T04:37:23;12.60;99.90
14995;DHT22;7593;49.006;8.372;2023-05-10T04:39:49;12.60;99.90
14995;DHT22;7593;49.006;8.372;2023-05-10T04:42:16;12.70;99.90
14995;DHT22;7593;49.006;8.372;2023-05-10T04:44:43;12.70;99.90
14995;DHT22;7593;49.006;8.372;2023-05-10T04:47:10;12.70;99.90
14995;DHT22;7593;49.006;8.372;2023-05-10T04:49:38;12.70;99.90
14995;DHT22;7593;49.006;8.372;2023-05-10T04:52:05;12.70;99.90
14995;DHT22;7593;49.006;8.372;2023-05-10T04:54:33;12.70;99.90
14995;DHT22;7593;49.006;8.372;2023-05-10T04:57:00;12.70;99.90
14995;DHT22;7593;49.006;8.372;2023-05-10T04:59:27;12.80;99.90
14995;DHT22;7593;49.006;8.372;2023-05-10T05:01:54;12.80;99.90
14995;DHT22;7593;49.006;8.372;2023-05-10T05:04:20;12.80;99.90
14995;DHT22;7593;49.006;8.372;2023-05-10T05:06:48;12.80;99.90
14995;DHT22;7593;49.006;8.372;2023-05-10T05:09:15;12.80;99.90
14995;DHT22;7593;49.006;8.372;2023-05-10T05:11:43;12.80;99.90
14995;DHT22;7593;49.006;8.372;2023-05-10T05:14:10;12.80;99.90
14995;DHT22;7593;49.006;8.372;2023-05-10T05:16:37;12.80;99.90
14995;DHT22;7593;49.006;8.372;2023-05-10T05:19:03;12.90;99.90
14995;DHT22;7593;49.006;8.372;2023-05-10T05:21:30;12.90;99.90
14995;DHT22;7593;49.006;8.372;2023-05-10T05:23:58;12.90;99.90
14995;DHT22;7593;49.006;8.372;2023-05-10T05:26:26;12.90;99.90
14995;DHT22;7593;49.006;8.372;2023-05-10T05:28:54;12.90;99.90
14995;DHT22;7593;49.006;8.372;2023-05-10T05:31:21;12.90;99.90
14995;DHT22;7593;49.006;8.372;2023-05-10T05:33:47;13.00;99.90
14995;DHT22;7593;49.006;8.372;2023-05-10T05:36:14;13.00;99.90
14995;DHT22;7593;49.006;8.372;2023-05-10T05:38:41;13.00;99.90
14995;DHT22;7593;49.006;8.372;2023-05-10T05:41:08;13.10;99.90
14995;DHT22;7593;49.006;8.372;2023-05-10T05:43:35;13.00;99.90
14995;DHT22;7593;49.006;8.372;2023-05-10T05:46:03;13.00;99.90
14995;DHT22;7593;49.006;8.372;2023-05-10T05:48:30;13.00;99.90
14995;DHT22;7593;49.006;8.372;2023-05-10T05:50:57;13.00;99.90
14995;DHT22;7593;49.006;8.372;2023-05-10T05:53:25;13.00;99.90
14995;DHT22;7593;49.006;8.372;2023-05-10T05:55:52;12.90;99.90
14995;DHT22;7593;49.006;8.372;2023-05-10T05:58:19;13.00;99.90
14995;DHT22;7593;49.006;8.372;2023-05-10T06:00:46;12.90;99.90
14995;DHT22;7593;49.006;8.372;2023-05-10T06:03:14;13.00;99.90
14995;DHT22;7593;49.006;8.372;2023-05-10T06:05:41;13.00;99.90
14995;DHT22;7593;49.006;8.372;2023-05-10T06:08:08;13.00;99.90
14995;DHT22;7593;49.006;8.372;2023-05-10T06:10:35;13.00;99.90
14995;DHT22;7593;49.006;8.372;2023-05-10T06:13:02;13.00;99.90
14995;DHT22;7593;49.006;8.372;2023-05-10T06:15:29;13.00;99.90
14995;DHT22;7593;49.006;8.372;2023-05-10T06:17:55;13.00;99.90
14995;DHT22;7593;49.006;8.372;2023-05-10T06:20:24;13.10;99.90
14995;DHT22;7593;49.006;8.372;2023-05-10T06:22:50;13.10;99.90
14995;DHT22;7593;49.006;8.372;2023-05-10T06:25:19;13.10;99.90
14995;DHT22;7593;49.006;8.372;2023-05-10T06:27:45;13.10;99.90
14995;DHT22;7593;49.006;8.372;2023-05-10T06:30:13;13.10;99.90
14995;DHT22;7593;49.006;8.372;2023-05-10T06:32:40;13.10;99.90
14995;DHT22;7593;49.006;8.372;2023-05-10T06:35:09;13.10;99.90
14995;DHT22;7593;49.006;8.372;2023-05-10T06:37:37;13.10;99.90
14995;DHT22;7593;49.006;8.372;2023-05-10T06:40:06;13.20;99.90
14995;DHT22;7593;49.006;8.372;2023-05-10T06:42:33;13.20;99.90
14995;DHT22;7593;49.006;8.372;2023-05-10T06:45:00;13.30;99.90
14995;DHT22;7593;49.006;8.372;2023-05-10T06:47:26;13.40;99.90
14995;DHT22;7593;49.006;8.372;2023-05-10T06:49:53;13.40;99.90
14995;DHT22;7593;49.006;8.372;2023-05-10T06:52:21;13.40;99.90
14995;DHT22;7593;49.006;8.372;2023-05-10T06:54:51;13.40;99.90
14995;DHT22;7593;49.006;8.372;2023-05-10T06:57:18;13.40;99.90
14995;DHT22;7593;49.006;8.372;2023-05-10T06:59:46;13.50;99.90
14995;DHT22;7593;49.006;8.372;2023-05-10T07:02:12;13.50;99.90
14995;DHT22;7593;49.006;8.372;2023-05-10T07:04:40;13.60;99.90
14995;DHT22;7593;49.006;8.372;2023-05-10T07:07:07;13.60;99.90
14995;DHT22;7593;49.006;8.372;2023-05-10T07:09:34;13.70;99.90
14995;DHT22;7593;49.006;8.372;2023-05-10T07:12:02;13.70;99.90
14995;DHT22;7593;49.006;8.372;2023-05-10T07:14:29;13.80;99.90
14995;DHT22;7593;49.006;8.372;2023-05-10T07:16:56;13.80;99.90
14995;DHT22;7593;49.006;8.372;2023-05-10T07:19:23;13.70;99.90
14995;DHT22;7593;49.006;8.372;2023-05-10T07:21:49;13.70;99.90
14995;DHT22;7593;49.006;8.372;2023-05-10T07:24:16;13.70;99.90
14995;DHT22;7593;49.006;8.372;2023-05-10T07:26:44;13.70;99.90
14995;DHT22;7593;49.006;8.372;2023-05-10T07:29:12;13.60;99.90
14995;DHT22;7593;49.006;8.372;2023-05-10T07:31:38;13.60;99.90
14995;DHT22;7593;49.006;8.372;2023-05-10T07:34:07;13.50;99.90
14995;DHT22;7593;49.006;8.372;2023-05-10T07:36:34;13.50;99.90
14995;DHT22;7593;49.006;8.372;2023-05-10T07:39:01;13.40;99.90
14995;DHT22;7593;49.006;8.372;2023-05-10T07:41:28;13.40;99.90
14995;DHT22;7593;49.006;8.372;2023-05-10T07:43:55;13.40;99.90
14995;DHT22;7593;49.006;8.372;2023-05-10T07:46:23;13.40;99.90
14995;DHT22;7593;49.006;8.372;2023-05-10T07:48:50;13.40;99.90
14995;DHT22;7593;49.006;8.372;2023-05-10T07:51:16;13.60;99.90
14995;DHT22;7593;49.006;8.372;2023-05-10T07:53:43;13.70;99.90
14995;DHT22;7593;49.006;8.372;2023-05-10T07:56:21;13.80;99.90
14995;DHT22;7593;49.006;8.372;2023-05-10T07:58:50;13.90;99.90
14995;DHT22;7593;49.006;8.372;2023-05-10T08:01:17;13.90;99.90
14995;DHT22;7593;49.006;8.372;2023-05-10T08:03:45;14.00;99.90
14995;DHT22;7593;49.006;8.372;2023-05-10T08:06:12;14.00;99.90
14995;DHT22;7593;49.006;8.372;2023-05-10T08:08:39;14.00;99.90
14995;DHT22;7593;49.006;8.372;2023-05-10T08:11:05;14.10;99.90
14995;DHT22;7593;49.006;8.372;2023-05-10T08:13:32;14.20;99.90
14995;DHT22;7593;49.006;8.372;2023-05-10T08:15:59;14.40;99.90
14995;DHT22;7593;49.006;8.372;2023-05-10T08:18:26;14.50;99.90
14995;DHT22;7593;49.006;8.372;2023-05-10T08:20:54;14.60;99.90
14995;DHT22;7593;49.006;8.372;2023-05-10T08:23:21;14.90;99.90
14995;DHT22;7593;49.006;8.372;2023-05-10T08:25:47;15.20;99.90
14995;DHT22;7593;49.006;8.372;2023-05-10T08:28:14;15.50;99.90
14995;DHT22;7593;49.006;8.372;2023-05-10T08:30:41;15.60;99.90
14995;DHT22;7593;49.006;8.372;2023-05-10T08:33:08;15.80;99.90
14995;DHT22;7593;49.006;8.372;2023-05-10T08:35:35;16.00;99.90
14995;DHT22;7593;49.006;8.372;2023-05-10T08:38:03;16.10;99.90
14995;DHT22;7593;49.006;8.372;2023-05-10T08:40:30;16.10;99.90
14995;DHT22;7593;49.006;8.372;2023-05-10T08:43:01;16.10;99.90
14995;DHT22;7593;49.006;8.372;2023-05-10T08:45:42;16.00;99.90
14995;DHT22;7593;49.006;8.372;2023-05-10T08:48:13;15.90;99.90
14995;DHT22;7593;49.006;8.372;2023-05-10T08:50:41;15.80;99.90
14995;DHT22;7593;49.006;8.372;2023-05-10T08:53:11;15.80;99.90
14995;DHT22;7593;49.006;8.372;2023-05-10T08:55:39;15.80;99.90
14995;DHT22;7593;49.006;8.372;2023-05-10T08:58:08;15.90;99.90
14995;DHT22;7593;49.006;8.372;2023-05-10T09:00:37;16.30;99.90
14995;DHT22;7593;49.006;8.372;2023-05-10T09:03:14;16.40;99.90
14995;DHT22;7593;49.006;8.372;2023-05-10T09:05:41;16.30;99.90
14995;DHT22;7593;49.006;8.372;2023-05-10T09:08:09;16.20;99.90
14995;DHT22;7593;49.006;8.372;2023-05-10T09:10:38;16.10;99.90
14995;DHT22;7593;49.006;8.372;2023-05-10T09:13:06;16.00;99.90
14995;DHT22;7593;49.006;8.372;2023-05-10T09:15:34;15.90;99.90
14995;DHT22;7593;49.006;8.372;2023-05-10T09:18:00;15.90;99.90
14995;DHT22;7593;49.006;8.372;2023-05-10T09:20:28;15.90;99.90
14995;DHT22;7593;49.006;8.372;2023-05-10T09:22:55;16.00;99.90
14995;DHT22;7593;49.006;8.372;2023-05-10T09:25:23;15.90;99.90
14995;DHT22;7593;49.006;8.372;2023-05-10T09:27:51;15.90;99.90
14995;DHT22;7593;49.006;8.372;2023-05-10T09:30:24;16.00;99.90
14995;DHT22;7593;49.006;8.372;2023-05-10T09:32:52;16.10;99.90
14995;DHT22;7593;49.006;8.372;2023-05-10T09:35:20;16.30;99.90
14995;DHT22;7593;49.006;8.372;2023-05-10T09:37:49;16.30;99.90
14995;DHT22;7593;49.006;8.372;2023-05-10T09:40:17;16.30;99.90
14995;DHT22;7593;49.006;8.372;2023-05-10T09:42:53;16.30;99.90
14995;DHT22;7593;49.006;8.372;2023-05-10T09:45:20;16.30;99.90
14995;DHT22;7593;49.006;8.372;2023-05-10T09:47:47;16.30;99.90
14995;DHT22;7593;49.006;8.372;2023-05-10T09:50:14;16.30;99.90
14995;DHT22;7593;49.006;8.372;2023-05-10T09:52:50;16.20;99.90
14995;DHT22;7593;49.006;8.372;2023-05-10T09:55:18;16.20;99.90
14995;DHT22;7593;49.006;8.372;2023-05-10T09:57:46;16.20;99.90
14995;DHT22;7593;49.006;8.372;2023-05-10T10:00:18;16.30;99.90
14995;DHT22;7593;49.006;8.372;2023-05-10T10:02:47;16.50;99.90
14995;DHT22;7593;49.006;8.372;2023-05-10T10:05:15;16.90;99.90
14995;DHT22;7593;49.006;8.372;2023-05-10T10:07:41;17.20;99.90
14995;DHT22;7593;49.006;8.372;2023-05-10T10:10:09;17.30;99.90
14995;DHT22;7593;49.006;8.372;2023-05-10T10:12:39;17.30;99.90
14995;DHT22;7593;49.006;8.372;2023-05-10T10:15:07;17.20;99.90
14995;DHT22;7593;49.006;8.372;2023-05-10T10:17:37;17.10;99.90
14995;DHT22;7593;49.006;8.372;2023-05-10T10:20:05;17.00;99.90
14995;DHT22;7593;49.006;8.372;2023-05-10T10:22:33;17.00;99.90
14995;DHT22;7593;49.006;8.372;2023-05-10T10:24:59;17.10;99.90
14995;DHT22;7593;49.006;8.372;2023-05-10T10:27:33;17.20;99.90
14995;DHT22;7593;49.006;8.372;2023-05-10T10:30:07;17.20;99.90
14995;DHT22;7593;49.006;8.372;2023-05-10T10:33:30;17.40;99.90
14995;DHT22;7593;49.006;8.372;2023-05-10T10:36:01;17.20;99.90
14995;DHT22;7593;49.006;8.372;2023-05-10T10:38:36;17.20;99.90
14995;DHT22;7593;49.006;8.372;2023-05-10T10:41:10;17.20;99.90
14995;DHT22;7593;49.006;8.372;2023-05-10T10:43:37;17.50;99.90
14995;DHT22;7593;49.006;8.372;2023-05-10T10:46:11;17.80;99.90
14995;DHT22;7593;49.006;8.372;2023-05-10T10:48:40;17.80;99.90
14995;DHT22;7593;49.006;8.372;2023-05-10T10:51:07;17.70;99.90
14995;DHT22;7593;49.006;8.372;2023-05-10T10:53:37;17.40;99.90
14995;DHT22;7593;49.006;8.372;2023-05-10T10:56:08;17.10;99.90
14995;DHT22;7593;49.006;8.372;2023-05-10T10:58:36;17.00;99.90
14995;DHT22;7593;49.006;8.372;2023-05-10T11:01:14;16.90;99.90
14995;DHT22;7593;49.006;8.372;2023-05-10T11:04:17;17.10;99.90
14995;DHT22;7593;49.006;8.372;2023-05-10T11:06:44;17.20;99.90
14995;DHT22;7593;49.006;8.372;2023-05-10T11:09:12;17.20;99.90
14995;DHT22;7593;49.006;8.372;2023-05-10T11:11:50;17.30;99.90
14995;DHT22;7593;49.006;8.372;2023-05-10T11:14:20;17.60;99.90
14995;DHT22;7593;49.006;8.372;2023-05-10T11:16:47;17.80;99.90
14995;DHT22;7593;49.006;8.372;2023-05-10T11:19:17;17.90;99.90
14995;DHT22;7593;49.006;8.372;2023-05-10T11:21:45;18.10;99.90
14995;DHT22;7593;49.006;8.372;2023-05-10T11:24:14;17.90;99.90
14995;DHT22;7593;49.006;8.372;2023-05-10T11:26:41;18.00;99.90
14995;DHT22;7593;49.006;8.372;2023-05-10T11:29:08;17.70;99.90
14995;DHT22;7593;49.006;8.372;2023-05-10T11:31:42;17.60;99.90
14995;DHT22;7593;49.006;8.372;2023-05-10T11:34:09;17.80;99.90
14995;DHT22;7593;49.006;8.372;2023-05-10T11:36:37;17.80;99.90
14995;DHT22;7593;49.006;8.372;2023-05-10T11:39:05;17.60;99.90
14995;DHT22;7593;49.006;8.372;2023-05-10T11:41:31;17.50;99.90
14995;DHT22;7593;49.006;8.372;2023-05-10T11:43:59;17.50;99.90
14995;DHT22;7593;49.006;8.372;2023-05-10T11:46:26;17.40;99.90
14995;DHT22;7593;49.006;8.372;2023-05-10T11:49:00;17.40;99.90
14995;DHT22;7593;49.006;8.372;2023-05-10T11:51:33;17.30;99.90
14995;DHT22;7593;49.006;8.372;2023-05-10T11:54:06;17.40;99.90
14995;DHT22;7593;49.006;8.372;2023-05-10T11:56:33;17.30;99.90
14995;DHT22;7593;49.006;8.372;2023-05-10T11:59:00;17.30;99.90
14995;DHT22;7593;49.006;8.372;2023-05-10T12:01:28;17.30;99.90
14995;DHT22;7593;49.006;8.372;2023-05-10T12:03:56;17.30;99.90
14995;DHT22;7593;49.006;8.372;2023-05-10T12:06:26;17.40;99.90
14995;DHT22;7593;49.006;8.372;2023-05-10T12:08:53;17.60;99.90
14995;DHT22;7593;49.006;8.372;2023-05-10T12:11:25;17.60;99.90
14995;DHT22;7593;49.006;8.372;2023-05-10T12:13:53;17.80;99.90
14995;DHT22;7593;49.006;8.372;2023-05-10T12:16:21;18.10;99.90
14995;DHT22;7593;49.006;8.372;2023-05-10T12:18:48;18.50;99.90
14995;DHT22;7593;49.006;8.372;2023-05-10T12:21:16;19.00;99.90
14995;DHT22;7593;49.006;8.372;2023-05-10T12:23:45;19.50;99.90
14995;DHT22;7593;49.006;8.372;2023-05-10T12:26:12;19.70;99.90
14995;DHT22;7593;49.006;8.372;2023-05-10T12:28:41;19.70;99.90
14995;DHT22;7593;49.006;8.372;2023-05-10T12:31:07;19.40;99.90
14995;DHT22;7593;49.006;8.372;2023-05-10T12:33:38;19.40;99.90
14995;DHT22;7593;49.006;8.372;2023-05-10T12:36:09;19.50;99.90
14995;DHT22;7593;49.006;8.372;2023-05-10T12:38:37;19.40;99.90
14995;DHT22;7593;49.006;8.372;2023-05-10T12:41:05;19.30;99.90
14995;DHT22;7593;49.006;8.372;2023-05-10T12:43:33;19.20;99.90
14995;DHT22;7593;49.006;8.372;2023-05-10T12:46:06;19.20;99.90
14995;DHT22;7593;49.006;8.372;2023-05-10T12:48:33;19.30;99.90
14995;DHT22;7593;49.006;8.372;2023-05-10T12:51:01;19.50;99.90
14995;DHT22;7593;49.006;8.372;2023-05-10T12:53:28;19.80;99.90
14995;DHT22;7593;49.006;8.372;2023-05-10T12:55:55;19.80;99.90
14995;DHT22;7593;49.006;8.372;2023-05-10T12:58:23;19.90;99.90
14995;DHT22;7593;49.006;8.372;2023-05-10T13:00:50;20.10;99.90
14995;DHT22;7593;49.006;8.372;2023-05-10T13:03:19;20.40;99.90
14995;DHT22;7593;49.006;8.372;2023-05-10T13:05:46;20.30;99.90
14995;DHT22;7593;49.006;8.372;2023-05-10T13:14:43;19.70;99.90
14995;DHT22;7593;49.006;8.372;2023-05-10T13:17:10;19.80;99.90
14995;DHT22;7593;49.006;8.372;2023-05-10T13:19:38;19.90;99.90
14995;DHT22;7593;49.006;8.372;2023-05-10T13:22:05;19.60;99.90
14995;DHT22;7593;49.006;8.372;2023-05-10T13:24:32;19.50;99.90
14995;DHT22;7593;49.006;8.372;2023-05-10T13:26:59;19.20;99.90
14995;DHT22;7593;49.006;8.372;2023-05-10T13:29:25;19.10;99.90
14995;DHT22;7593;49.006;8.372;2023-05-10T13:31:52;19.10;99.90
14995;DHT22;7593;49.006;8.372;2023-05-10T13:34:19;19.20;99.90
14995;DHT22;7593;49.006;8.372;2023-05-10T13:36:48;19.10;99.90
14995;DHT22;7593;49.006;8.372;2023-05-10T13:39:15;19.10;99.90
14995;DHT22;7593;49.006;8.372;2023-05-10T13:41:41;19.00;99.90
14995;DHT22;7593;49.006;8.372;2023-05-10T13:44:08;18.80;99.90
14995;DHT22;7593;49.006;8.372;2023-05-10T13:46:36;18.70;99.90
14995;DHT22;7593;49.006;8.372;2023-05-10T13:49:04;18.80;99.90
14995;DHT22;7593;49.006;8.372;2023-05-10T13:51:30;18.80;99.90
14995;DHT22;7593;49.006;8.372;2023-05-10T13:53:59;18.70;99.90
14995;DHT22;7593;49.006;8.372;2023-05-10T13:56:26;18.50;99.90
14995;DHT22;7593;49.006;8.372;2023-05-10T13:58:53;18.20;99.90
14995;DHT22;7593;49.006;8.372;2023-05-10T14:01:19;18.10;99.90
14995;DHT22;7593;49.006;8.372;2023-05-10T14:03:46;17.90;99.90
14995;DHT22;7593;49.006;8.372;2023-05-10T14:06:13;17.80;99.90
14995;DHT22;7593;49.006;8.372;2023-05-10T14:08:40;17.70;99.90
14995;DHT22;7593;49.006;8.372;2023-05-10T14:11:08;17.70;99.90
14995;DHT22;7593;49.006;8.372;2023-05-10T14:13:35;17.60;99.90
14995;DHT22;7593;49.006;8.372;2023-05-10T14:16:02;17.50;99.90
14995;DHT22;7593;49.006;8.372;2023-05-10T14:18:29;17.50;99.90
14995;DHT22;7593;49.006;8.372;2023-05-10T14:20:56;17.40;99.90
14995;DHT22;7593;49.006;8.372;2023-05-10T14:23:23;17.40;99.90
14995;DHT22;7593;49.006;8.372;2023-05-10T14:25:51;17.40;99.90
14995;DHT22;7593;49.006;8.372;2023-05-10T14:28:19;17.60;99.90
14995;DHT22;7593;49.006;8.372;2023-05-10T14:30:48;17.70;99.90
14995;DHT22;7593;49.006;8.372;2023-05-10T14:33:14;18.10;99.90
14995;DHT22;7593;49.006;8.372;2023-05-10T14:35:41;18.70;99.90
14995;DHT22;7593;49.006;8.372;2023-05-10T14:38:08;19.40;99.90
14995;DHT22;7593;49.006;8.372;2023-05-10T14:40:36;20.20;99.90
14995;DHT22;7593;49.006;8.372;2023-05-10T14:43:02;20.60;99.90
14995;DHT22;7593;49.006;8.372;2023-05-10T14:45:31;20.60;99.90
14995;DHT22;7593;49.006;8.372;2023-05-10T14:47:58;20.50;99.90
14995;DHT22;7593;49.006;8.372;2023-05-10T14:50:25;20.50;99.90
14995;DHT22;7593;49.006;8.372;2023-05-10T14:52:51;20.70;99.90
14995;DHT22;7593;49.006;8.372;2023-05-10T14:55:18;20.90;99.90
14995;DHT22;7593;49.006;8.372;2023-05-10T14:57:45;21.10;99.90
14995;DHT22;7593;49.006;8.372;2023-05-10T15:00:15;21.10;99.90
14995;DHT22;7593;49.006;8.372;2023-05-10T15:02:43;20.90;99.90
14995;DHT22;7593;49.006;8.372;2023-05-10T15:05:10;20.80;99.90
14995;DHT22;7593;49.006;8.372;2023-05-10T15:07:37;20.60;99.90
14995;DHT22;7593;49.006;8.372;2023-05-10T15:10:05;20.50;99.90
14995;DHT22;7593;49.006;8.372;2023-05-10T15:12:32;20.20;99.90
14995;DHT22;7593;49.006;8.372;2023-05-10T15:14:59;19.90;99.90
14995;DHT22;7593;49.006;8.372;2023-05-10T15:17:26;19.60;99.90
14995;DHT22;7593;49.006;8.372;2023-05-10T15:19:54;19.30;99.90
14995;DHT22;7593;49.006;8.372;2023-05-10T15:22:21;19.10;99.90
14995;DHT22;7593;49.006;8.372;2023-05-10T15:24:48;18.90;99.90
14995;DHT22;7593;49.006;8.372;2023-05-10T15:27:14;18.80;99.90
14995;DHT22;7593;49.006;8.372;2023-05-10T15:29:41;18.90;99.90
14995;DHT22;7593;49.006;8.372;2023-05-10T15:32:08;18.90;99.90
14995;DHT22;7593;49.006;8.372;2023-05-10T15:34:35;19.00;99.90
14995;DHT22;7593;49.006;8.372;2023-05-10T15:37:03;19.20;99.90
14995;DHT22;7593;49.006;8.372;2023-05-10T15:39:30;19.30;99.90
14995;DHT22;7593;49.006;8.372;2023-05-10T15:41:57;19.20;99.90
14995;DHT22;7593;49.006;8.372;2023-05-10T15:44:24;19.00;99.90
14995;DHT22;7593;49.006;8.372;2023-05-10T15:46:51;18.80;99.90
14995;DHT22;7593;49.006;8.372;2023-05-10T15:49:17;18.90;99.90
14995;DHT22;7593;49.006;8.372;2023-05-10T15:51:44;19.10;99.90
14995;DHT22;7593;49.006;8.372;2023-05-10T15:54:12;19.10;99.90
14995;DHT22;7593;49.006;8.372;2023-05-10T15:56:39;19.10;99.90
14995;DHT22;7593;49.006;8.372;2023-05-10T15:59:06;19.20;99.90
14995;DHT22;7593;49.006;8.372;2023-05-10T16:01:36;19.30;99.90